Time;durP1;ratioP1;P1;durP2;ratioP2;P2;SDS_P1;SDS_P2;PMS_P1;PMS_P2;Temp;Humidity;BMP_temperature;BMP_pressure;BME280_temperature;BME280_humidity;BME280_pressure;Samples;Min_cycle;Max_cycle;Signal;HPM_P1;HPM_P2
2023/12/29 00:01:14;;;;;;;0.70;0.70;;;8.60;1.00;;;;;;5137962;27;20184;-82
2023/12/29 00:03:40;;;;;;;0.60;0.60;;;8.50;1.00;;;;;;5123902;27;20177;-79
2023/12/29 00:06:06;;;;;;;0.63;0.63;;;8.40;1.00;;;;;;5116831;28;20281;-82
2023/12/29 00:08:31;;;;;;;0.70;0.70;;;8.30;4.90;;;;;;5116909;28;20630;-83
2023/12/29 00:10:57;;;;;;;0.77;0.77;;;8.30;10.00;;;;;;5121782;28;20592;-78
2023/12/29 00:13:23;;;;;;;0.70;0.70;;;8.50;1.00;;;;;;5125647;28;20209;-80
2023/12/29 00:15:53;;;;;;;0.70;0.70;;;8.50;1.00;;;;;;5125912;28;20197;-81
2023/12/29 00:18:19;;;;;;;0.60;0.60;;;8.60;1.00;;;;;;5126944;28;20177;-79
2023/12/29 00:20:45;;;;;;;0.70;0.70;;;8.70;1.00;;;;;;5131244;28;20252;-82
2023/12/29 00:23:10;;;;;;;0.70;0.70;;;8.70;1.00;;;;;;5117815;28;20224;-82
2023/12/29 00:25:36;;;;;;;0.73;0.73;;;8.60;1.00;;;;;;5118404;28;20184;-83
2023/12/29 00:28:03;;;;;;;0.70;0.70;;;8.70;1.00;;;;;;5121539;27;20606;-81
2023/12/29 00:30:31;;;;;;;0.60;0.60;;;8.80;1.00;;;;;;5139618;27;20260;-82
2023/12/29 00:32:57;;;;;;;0.70;0.70;;;8.70;1.00;;;;;;5140761;27;20173;-83
2023/12/29 00:35:22;;;;;;;0.77;0.77;;;8.70;1.00;;;;;;5138987;27;20262;-82
2023/12/29 00:37:50;;;;;;;0.70;0.70;;;8.80;1.00;;;;;;5138627;27;20616;-83
2023/12/29 00:40:16;;;;;;;0.70;0.70;;;8.80;1.00;;;;;;5139123;27;20224;-82
2023/12/29 00:42:41;;;;;;;0.80;0.80;;;8.80;1.00;;;;;;5136917;27;20176;-82
2023/12/29 00:45:07;;;;;;;0.70;0.70;;;8.80;1.00;;;;;;5137959;27;20669;-83
2023/12/29 00:47:33;;;;;;;0.60;0.60;;;8.90;1.00;;;;;;5137723;28;20251;-83
2023/12/29 00:49:59;;;;;;;0.60;0.60;;;8.90;1.00;;;;;;5138031;28;20268;-83
2023/12/29 00:52:25;;;;;;;0.70;0.70;;;9.00;1.00;;;;;;5137170;27;20180;-82
2023/12/29 00:54:51;;;;;;;0.70;0.70;;;9.00;1.00;;;;;;5137774;28;20176;-81
2023/12/29 00:57:16;;;;;;;0.70;0.70;;;9.10;1.00;;;;;;5137688;27;20192;-83
2023/12/29 00:59:43;;;;;;;0.70;0.70;;;9.10;1.00;;;;;;5137664;27;20188;-82
2023/12/29 01:02:09;;;;;;;0.70;0.70;;;9.10;1.00;;;;;;5138071;28;20236;-82
2023/12/29 01:04:38;;;;;;;0.70;0.70;;;9.10;1.00;;;;;;5137475;27;20211;-82
2023/12/29 01:07:04;;;;;;;0.60;0.60;;;9.20;1.00;;;;;;5136340;28;20223;-83
2023/12/29 01:09:29;;;;;;;0.70;0.70;;;9.10;1.00;;;;;;5137922;27;20173;-82
2023/12/29 01:11:55;;;;;;;0.70;0.70;;;9.20;99.90;;;;;;5136695;28;20172;-81
2023/12/29 01:14:20;;;;;;;0.70;0.70;;;9.10;1.00;;;;;;5137683;28;20184;-82
2023/12/29 01:16:46;;;;;;;0.80;0.80;;;9.10;1.00;;;;;;5138865;28;20275;-82
2023/12/29 01:19:11;;;;;;;0.60;0.60;;;9.10;1.00;;;;;;5138887;27;20634;-82
2023/12/29 01:21:40;;;;;;;0.70;0.70;;;9.10;1.00;;;;;;5138320;27;20212;-82
2023/12/29 01:24:07;;;;;;;0.70;0.70;;;9.10;99.90;;;;;;5138310;28;20217;-82
2023/12/29 01:26:37;;;;;;;0.70;0.70;;;9.10;1.00;;;;;;5137491;27;20193;-82
2023/12/29 01:29:04;;;;;;;0.70;0.70;;;9.00;1.00;;;;;;5136659;27;20310;-82
2023/12/29 01:31:33;;;;;;;0.60;0.60;;;9.00;1.00;;;;;;5138807;27;20583;-83
2023/12/29 01:33:59;;;;;;;0.70;0.70;;;8.90;1.00;;;;;;5138484;27;20169;-81
2023/12/29 01:36:25;;;;;;;0.70;0.70;;;8.90;1.00;;;;;;5141158;27;20193;-84
2023/12/29 01:38:50;;;;;;;0.80;0.80;;;8.90;1.00;;;;;;5142429;27;20172;-82
2023/12/29 01:41:19;;;;;;;0.60;0.60;;;8.90;1.00;;;;;;5142495;27;20179;-82
2023/12/29 01:43:56;;;;;;;0.73;0.73;;;8.80;1.00;;;;;;5143484;27;20225;-82
2023/12/29 01:46:23;;;;;;;0.60;0.60;;;8.80;1.00;;;;;;5142222;27;20250;-83
2023/12/29 01:48:49;;;;;;;0.70;0.70;;;8.90;1.00;;;;;;5143371;27;20737;-81
2023/12/29 01:51:16;;;;;;;0.80;0.80;;;9.00;99.90;;;;;;5142463;27;20235;-82
2023/12/29 01:53:41;;;;;;;0.60;0.60;;;8.90;1.00;;;;;;5143614;27;20204;-81
2023/12/29 01:56:08;;;;;;;0.60;0.60;;;8.90;1.00;;;;;;5155461;27;20192;-80
2023/12/29 01:58:35;;;;;;;0.70;0.70;;;8.90;1.00;;;;;;5158409;27;20180;-80
2023/12/29 02:01:02;;;;;;;0.70;0.70;;;8.80;1.00;;;;;;5158804;27;20188;-80
2023/12/29 02:03:27;;;;;;;0.80;0.80;;;8.90;1.00;;;;;;5158593;27;20172;-80
2023/12/29 02:05:55;;;;;;;0.80;0.80;;;8.90;1.00;;;;;;5150302;27;20287;-81
2023/12/29 02:08:22;;;;;;;0.67;0.67;;;9.00;99.90;;;;;;5138699;27;20206;-82
2023/12/29 02:10:48;;;;;;;0.80;0.80;;;8.90;99.90;;;;;;5138369;27;20291;-82
2023/12/29 02:13:14;;;;;;;0.90;0.90;;;8.90;99.90;;;;;;5129521;27;20212;-79
2023/12/29 02:15:40;;;;;;;0.70;0.70;;;8.90;1.00;;;;;;5138986;28;20173;-79
2023/12/29 02:18:07;;;;;;;0.70;0.70;;;8.90;1.00;;;;;;5139704;28;20184;-78
2023/12/29 02:20:33;;;;;;;0.70;0.70;;;8.80;1.00;;;;;;5139535;28;20173;-79
2023/12/29 02:23:00;;;;;;;0.80;0.80;;;8.80;1.00;;;;;;5133863;28;20756;-82
2023/12/29 02:25:26;;;;;;;0.67;0.67;;;8.90;1.00;;;;;;5120718;28;20177;-81
2023/12/29 02:28:04;;;;;;;0.70;0.70;;;9.00;1.00;;;;;;5122657;27;20177;-80
2023/12/29 02:30:49;;;;;;;0.70;0.70;;;8.90;1.00;;;;;;5121515;27;20201;-80
2023/12/29 02:33:19;;;;;;;0.80;0.80;;;8.90;1.00;;;;;;5122671;27;20178;-83
2023/12/29 02:35:46;;;;;;;0.80;0.80;;;9.00;99.90;;;;;;5121684;28;20193;-82
2023/12/29 02:38:12;;;;;;;0.67;0.67;;;9.00;99.90;;;;;;5121467;28;20188;-82
2023/12/29 02:40:38;;;;;;;0.70;0.70;;;9.00;1.00;;;;;;5121774;28;20173;-82
2023/12/29 02:43:04;;;;;;;0.80;0.80;;;9.00;99.90;;;;;;5121988;28;20685;-82
2023/12/29 02:45:30;;;;;;;0.70;0.70;;;9.10;1.00;;;;;;5120051;28;20180;-85
2023/12/29 02:47:55;;;;;;;0.60;0.60;;;9.20;99.90;;;;;;5119088;28;20184;-83
2023/12/29 02:50:21;;;;;;;0.80;0.80;;;9.20;1.00;;;;;;5119450;28;20204;-81
2023/12/29 02:52:46;;;;;;;0.60;0.60;;;9.20;1.00;;;;;;5119945;28;20181;-82
2023/12/29 02:55:12;;;;;;;0.70;0.70;;;9.20;1.00;;;;;;5118994;28;20193;-81
2023/12/29 02:57:38;;;;;;;0.70;0.70;;;9.20;1.00;;;;;;5122140;28;20197;-79
2023/12/29 03:00:05;;;;;;;0.63;0.63;;;9.20;1.00;;;;;;5133741;28;20163;-78
2023/12/29 03:02:32;;;;;;;0.67;0.67;;;9.10;1.00;;;;;;5120966;28;20570;-81
2023/12/29 03:04:58;;;;;;;0.70;0.70;;;9.20;1.00;;;;;;5118851;28;20559;-81
2023/12/29 03:07:24;;;;;;;0.57;0.57;;;9.20;1.00;;;;;;5118394;28;20208;-81
2023/12/29 03:09:49;;;;;;;0.70;0.70;;;9.10;1.00;;;;;;5117506;28;20250;-82
2023/12/29 03:12:15;;;;;;;0.80;0.80;;;9.10;1.00;;;;;;5118721;28;20240;-82
2023/12/29 03:14:40;;;;;;;0.60;0.60;;;9.00;1.00;;;;;;5118134;28;20208;-81
2023/12/29 03:17:06;;;;;;;0.70;0.70;;;9.00;1.00;;;;;;5118224;28;20576;-81
2023/12/29 03:19:31;;;;;;;0.70;0.70;;;9.00;1.00;;;;;;5127159;28;20236;-79
2023/12/29 03:21:57;;;;;;;0.77;0.77;;;9.00;1.00;;;;;;5134559;28;20203;-79
2023/12/29 03:24:22;;;;;;;0.60;0.60;;;9.00;1.00;;;;;;5134821;28;20205;-80
2023/12/29 03:26:48;;;;;;;0.80;0.80;;;9.00;1.00;;;;;;5132844;27;20291;-78
2023/12/29 03:29:14;;;;;;;0.80;0.80;;;9.00;1.00;;;;;;5121281;28;20310;-83
2023/12/29 03:31:39;;;;;;;0.70;0.70;;;9.00;1.00;;;;;;5118938;28;20213;-81
2023/12/29 03:34:05;;;;;;;0.60;0.60;;;9.00;1.00;;;;;;5118440;28;20264;-81
2023/12/29 03:36:31;;;;;;;0.60;0.60;;;9.00;1.00;;;;;;5116024;28;20208;-81
2023/12/29 03:38:57;;;;;;;0.80;0.80;;;9.00;1.00;;;;;;5117534;28;20204;-81
2023/12/29 03:41:22;;;;;;;0.73;0.73;;;9.00;1.00;;;;;;5117746;28;20177;-82
2023/12/29 03:43:48;;;;;;;0.70;0.70;;;9.00;1.00;;;;;;5117545;28;20588;-82
2023/12/29 03:46:18;;;;;;;0.70;0.70;;;9.00;1.00;;;;;;5117289;28;20188;-82
2023/12/29 03:48:44;;;;;;;0.70;0.70;;;9.00;1.00;;;;;;5117363;28;20181;-81
2023/12/29 03:51:09;;;;;;;0.70;0.70;;;8.90;1.00;;;;;;5116787;28;20198;-82
2023/12/29 03:53:35;;;;;;;0.90;0.90;;;8.80;1.00;;;;;;5117135;28;20256;-82
2023/12/29 03:56:05;;;;;;;0.80;0.80;;;8.80;1.00;;;;;;5116422;28;20188;-80
2023/12/29 03:58:30;;;;;;;0.90;0.90;;;8.60;1.00;;;;;;5116158;28;20176;-80
2023/12/29 04:00:56;;;;;;;0.70;0.70;;;8.60;1.00;;;;;;5116309;28;20177;-82
2023/12/29 04:03:21;;;;;;;0.77;0.77;;;8.60;1.00;;;;;;5116741;28;20176;-82
2023/12/29 04:05:47;;;;;;;0.70;0.70;;;8.50;1.00;;;;;;5115651;28;20192;-81
2023/12/29 04:08:13;;;;;;;0.70;0.70;;;8.40;11.10;;;;;;5114465;28;20210;-82
2023/12/29 04:10:38;;;;;;;0.80;0.80;;;8.40;8.10;;;;;;5116647;28;20330;-80
2023/12/29 04:13:04;;;;;;;0.67;0.67;;;8.50;26.00;;;;;;5116584;28;20173;-83
2023/12/29 04:15:30;;;;;;;0.80;0.80;;;8.40;26.00;;;;;;5115770;28;20169;-81
2023/12/29 04:17:56;;;;;;;0.70;0.70;;;8.30;33.60;;;;;;5116382;28;20256;-82
2023/12/29 04:20:21;;;;;;;0.70;0.70;;;8.30;48.60;;;;;;5115684;28;20195;-81
2023/12/29 04:22:47;;;;;;;0.80;0.80;;;8.40;36.00;;;;;;5115826;28;20191;-82
2023/12/29 04:25:13;;;;;;;0.67;0.67;;;8.40;44.60;;;;;;5116327;28;20165;-81
2023/12/29 04:27:40;;;;;;;0.70;0.70;;;8.30;50.60;;;;;;5115437;28;20762;-82
2023/12/29 04:30:07;;;;;;;0.70;0.70;;;8.20;63.10;;;;;;5115711;28;20246;-82
2023/12/29 04:32:33;;;;;;;0.70;0.70;;;8.20;92.20;;;;;;5115747;27;20173;-81
2023/12/29 04:34:58;;;;;;;0.70;0.70;;;8.30;99.10;;;;;;5116022;28;20165;-82
2023/12/29 04:37:24;;;;;;;0.70;0.70;;;8.20;97.90;;;;;;5115076;28;20200;-81
2023/12/29 04:39:50;;;;;;;0.80;0.80;;;8.10;99.90;;;;;;5115628;28;20260;-81
2023/12/29 04:42:16;;;;;;;0.80;0.80;;;8.10;99.90;;;;;;5115429;28;20655;-80
2023/12/29 04:44:42;;;;;;;0.60;0.60;;;8.10;99.90;;;;;;5115488;28;20284;-81
2023/12/29 04:47:07;;;;;;;0.80;0.80;;;8.20;99.90;;;;;;5115099;28;20213;-80
2023/12/29 04:49:33;;;;;;;0.67;0.67;;;8.20;99.90;;;;;;5115937;28;20256;-82
2023/12/29 04:51:58;;;;;;;0.70;0.70;;;8.20;99.90;;;;;;5116089;28;20188;-81
2023/12/29 04:54:25;;;;;;;0.70;0.70;;;8.10;99.90;;;;;;5115016;28;20173;-82
2023/12/29 04:56:51;;;;;;;0.80;0.80;;;8.10;99.90;;;;;;5122342;28;20185;-80
2023/12/29 04:59:16;;;;;;;0.77;0.77;;;8.10;99.90;;;;;;5131730;28;20517;-80
2023/12/29 05:01:42;;;;;;;0.73;0.73;;;8.10;99.90;;;;;;5124058;28;20260;-81
2023/12/29 05:04:07;;;;;;;0.70;0.70;;;8.10;99.90;;;;;;5122768;28;20182;-81
2023/12/29 05:06:33;;;;;;;0.77;0.77;;;8.00;99.90;;;;;;5120761;28;20209;-80
2023/12/29 05:08:58;;;;;;;0.70;0.70;;;8.00;99.90;;;;;;5122544;28;20177;-82
2023/12/29 05:11:24;;;;;;;0.70;0.70;;;8.00;99.90;;;;;;5122583;28;20293;-82
2023/12/29 05:13:50;;;;;;;0.70;0.70;;;8.00;99.90;;;;;;5124001;28;20514;-81
2023/12/29 05:16:15;;;;;;;0.60;0.60;;;7.90;99.90;;;;;;5112671;27;20201;-82
2023/12/29 05:18:41;;;;;;;0.70;0.70;;;8.00;99.90;;;;;;5102584;28;20181;-81
2023/12/29 05:21:15;;;;;;;0.70;0.70;;;8.00;99.90;;;;;;5100884;28;20201;-82
2023/12/29 05:23:41;;;;;;;0.73;0.73;;;7.90;99.90;;;;;;5100364;28;20552;-83
2023/12/29 05:26:06;;;;;;;0.70;0.70;;;8.00;99.90;;;;;;5102211;28;20194;-84
2023/12/29 05:28:32;;;;;;;0.80;0.80;;;8.00;99.90;;;;;;5103315;28;20178;-80
2023/12/29 05:30:59;;;;;;;0.80;0.80;;;8.10;99.90;;;;;;5100449;28;20198;-82
2023/12/29 05:33:24;;;;;;;0.80;0.80;;;8.00;99.90;;;;;;5100803;28;20166;-82
2023/12/29 05:35:51;;;;;;;0.80;0.80;;;8.10;99.90;;;;;;5099595;28;20641;-82
2023/12/29 05:38:16;;;;;;;0.70;0.70;;;8.10;99.90;;;;;;5100344;28;20649;-82
2023/12/29 05:40:42;;;;;;;0.80;0.80;;;8.20;99.90;;;;;;5100538;28;20177;-83
2023/12/29 05:43:08;;;;;;;0.70;0.70;;;8.20;99.90;;;;;;5100551;28;20203;-82
2023/12/29 05:45:33;;;;;;;0.70;0.70;;;8.10;99.90;;;;;;5099753;28;20186;-82
2023/12/29 05:47:59;;;;;;;0.60;0.60;;;8.00;99.90;;;;;;5100225;28;20178;-84
2023/12/29 05:50:25;;;;;;;0.70;0.70;;;7.90;99.90;;;;;;5100428;28;20201;-82
2023/12/29 05:52:51;;;;;;;0.70;0.70;;;7.90;99.90;;;;;;5098524;28;20223;-85
2023/12/29 05:55:18;;;;;;;0.90;0.90;;;7.90;99.90;;;;;;5099956;28;20174;-82
2023/12/29 05:57:44;;;;;;;0.70;0.70;;;7.90;99.90;;;;;;5100173;28;20210;-82
2023/12/29 06:00:14;;;;;;;0.80;0.80;;;7.90;99.90;;;;;;5100309;28;20189;-81
2023/12/29 06:02:43;;;;;;;0.70;0.70;;;7.80;99.90;;;;;;5095844;28;20243;-82
2023/12/29 06:05:12;;;;;;;0.80;0.80;;;7.80;99.90;;;;;;5100360;28;20174;-80
2023/12/29 06:07:38;;;;;;;0.70;0.70;;;7.80;99.90;;;;;;5115173;28;20205;-80
2023/12/29 06:10:04;;;;;;;0.70;0.70;;;7.80;99.90;;;;;;5116383;28;20216;-79
2023/12/29 06:12:29;;;;;;;0.70;0.70;;;7.90;99.90;;;;;;5116848;28;20185;-79
2023/12/29 06:14:55;;;;;;;0.70;0.70;;;8.00;99.90;;;;;;5117806;28;20253;-78
2023/12/29 06:17:21;;;;;;;0.70;0.70;;;8.20;99.90;;;;;;5116282;28;20197;-84
2023/12/29 06:19:46;;;;;;;0.60;0.60;;;8.20;99.90;;;;;;5102671;28;20655;-82
2023/12/29 06:22:14;;;;;;;0.73;0.73;;;8.20;99.90;;;;;;5100200;28;20188;-80
2023/12/29 06:24:40;;;;;;;0.80;0.80;;;8.30;99.90;;;;;;5098817;28;20185;-81
2023/12/29 06:27:08;;;;;;;0.70;0.70;;;8.50;99.90;;;;;;5095243;28;20727;-80
2023/12/29 06:29:33;;;;;;;0.80;0.80;;;8.40;99.90;;;;;;5096617;28;20642;-81
2023/12/29 06:31:59;;;;;;;0.80;0.80;;;8.40;99.90;;;;;;5098180;28;20270;-79
2023/12/29 06:34:25;;;;;;;0.70;0.70;;;8.40;99.90;;;;;;5119482;28;20173;-80
2023/12/29 06:36:50;;;;;;;0.80;0.80;;;8.30;99.90;;;;;;5100858;28;20205;-82
2023/12/29 06:39:16;;;;;;;0.77;0.77;;;8.50;99.90;;;;;;5107406;28;20272;-80
2023/12/29 06:41:41;;;;;;;0.80;0.80;;;8.30;99.90;;;;;;5109727;28;20178;-81
2023/12/29 06:44:07;;;;;;;0.70;0.70;;;8.20;99.90;;;;;;5110947;28;20174;-82
2023/12/29 06:46:33;;;;;;;0.70;0.70;;;8.20;99.90;;;;;;5102453;28;20217;-81
2023/12/29 06:48:59;;;;;;;0.70;0.70;;;8.30;99.90;;;;;;5110969;27;20710;-82
2023/12/29 06:51:24;;;;;;;0.60;0.60;;;8.10;99.90;;;;;;5119671;28;20209;-81
2023/12/29 06:53:50;;;;;;;0.67;0.67;;;8.10;99.90;;;;;;5115719;27;20170;-83
2023/12/29 06:56:17;;;;;;;0.63;0.63;;;8.10;99.90;;;;;;5119026;28;20620;-81
2023/12/29 06:58:43;;;;;;;0.70;0.70;;;8.20;99.90;;;;;;5119374;28;20310;-82
2023/12/29 07:01:09;;;;;;;0.60;0.60;;;8.20;99.90;;;;;;5119344;28;20204;-81
2023/12/29 07:03:35;;;;;;;0.60;0.60;;;8.50;99.90;;;;;;5117006;28;20184;-80
2023/12/29 07:06:01;;;;;;;0.70;0.70;;;8.50;99.90;;;;;;5116339;28;20242;-83
2023/12/29 07:08:28;;;;;;;0.67;0.67;;;8.30;99.90;;;;;;5116090;28;20238;-82
2023/12/29 07:10:53;;;;;;;0.70;0.70;;;8.50;99.90;;;;;;5117241;28;20201;-82
2023/12/29 07:13:19;;;;;;;0.70;0.70;;;8.40;99.90;;;;;;5119553;28;20277;-84
2023/12/29 07:15:47;;;;;;;0.70;0.70;;;8.40;99.90;;;;;;5110107;28;20285;-81
2023/12/29 07:18:13;;;;;;;0.80;0.80;;;8.40;99.90;;;;;;5109505;28;20169;-83
2023/12/29 07:20:39;;;;;;;0.80;0.80;;;8.30;99.90;;;;;;5115837;28;20666;-82
2023/12/29 07:23:05;;;;;;;0.70;0.70;;;8.30;99.90;;;;;;5096014;28;20177;-82
2023/12/29 07:25:30;;;;;;;0.90;0.90;;;8.30;99.90;;;;;;5100384;28;20177;-83
2023/12/29 07:27:56;;;;;;;0.70;0.70;;;8.40;99.90;;;;;;5106744;28;20166;-80
2023/12/29 07:30:22;;;;;;;0.70;0.70;;;8.50;99.90;;;;;;5100888;28;20208;-82
2023/12/29 07:32:47;;;;;;;0.87;0.87;;;8.50;99.90;;;;;;5107855;28;20540;-81
2023/12/29 07:35:17;;;;;;;0.70;0.70;;;8.50;99.90;;;;;;5116931;28;20173;-81
2023/12/29 07:37:43;;;;;;;0.70;0.70;;;8.50;99.90;;;;;;5115930;28;20189;-80
2023/12/29 07:40:11;;;;;;;0.70;0.70;;;8.50;99.90;;;;;;5115980;28;20221;-81
2023/12/29 07:42:37;;;;;;;0.70;0.70;;;8.60;99.90;;;;;;5117370;28;20180;-79
2023/12/29 07:45:03;;;;;;;0.50;0.50;;;8.60;99.90;;;;;;5118822;28;20192;-81
2023/12/29 07:47:28;;;;;;;0.80;0.80;;;8.70;99.90;;;;;;5117792;28;20193;-81
2023/12/29 07:49:54;;;;;;;0.70;0.70;;;8.80;99.90;;;;;;5117386;28;20747;-81
2023/12/29 07:52:19;;;;;;;0.60;0.60;;;9.00;99.90;;;;;;5117730;28;20179;-81
2023/12/29 07:54:45;;;;;;;0.70;0.70;;;9.20;99.90;;;;;;5118088;28;20173;-81
2023/12/29 07:57:10;;;;;;;0.63;0.63;;;9.20;99.90;;;;;;5118120;28;20189;-79
2023/12/29 07:59:36;;;;;;;0.60;0.60;;;9.40;99.90;;;;;;5118656;28;20177;-82
2023/12/29 08:02:01;;;;;;;0.70;0.70;;;9.60;90.10;;;;;;5119553;28;20593;-82
2023/12/29 08:04:27;;;;;;;0.60;0.60;;;9.70;91.30;;;;;;5118148;28;20173;-80
2023/12/29 08:06:53;;;;;;;0.60;0.60;;;9.50;99.90;;;;;;5123189;28;20191;-78
2023/12/29 08:09:19;;;;;;;0.60;0.60;;;9.60;99.90;;;;;;5123585;28;20184;-77
2023/12/29 08:11:46;;;;;;;0.60;0.60;;;9.30;99.90;;;;;;5136096;28;20236;-78
2023/12/29 08:14:12;;;;;;;0.60;0.60;;;9.30;99.90;;;;;;5132502;28;20184;-80
2023/12/29 08:16:39;;;;;;;0.60;0.60;;;9.30;99.90;;;;;;5132593;28;20200;-78
2023/12/29 08:19:06;;;;;;;0.73;0.73;;;9.30;99.90;;;;;;5135801;28;20191;-78
2023/12/29 08:21:32;;;;;;;0.60;0.60;;;9.30;99.90;;;;;;5138244;28;20169;-78
2023/12/29 08:23:57;;;;;;;0.60;0.60;;;9.30;99.90;;;;;;5118188;28;20215;-80
2023/12/29 08:26:23;;;;;;;0.60;0.60;;;9.40;99.90;;;;;;5115820;28;20219;-79
2023/12/29 08:28:48;;;;;;;0.60;0.60;;;9.50;99.90;;;;;;5116044;28;20195;-81
2023/12/29 08:31:15;;;;;;;0.70;0.70;;;9.60;99.90;;;;;;5113960;28;20703;-81
2023/12/29 08:33:40;;;;;;;0.67;0.67;;;9.70;99.90;;;;;;5118425;28;20586;-81
2023/12/29 08:36:06;;;;;;;0.80;0.80;;;10.00;64.10;;;;;;5117207;28;20189;-82
2023/12/29 08:38:33;;;;;;;0.70;0.70;;;10.10;65.60;;;;;;5113702;28;20176;-81
2023/12/29 08:41:00;;;;;;;0.60;0.60;;;10.60;1.10;;;;;;5111186;28;20176;-80
2023/12/29 08:43:26;;;;;;;0.50;0.50;;;11.20;1.00;;;;;;5109471;28;20211;-80
2023/12/29 08:45:51;;;;;;;0.40;0.40;;;11.20;1.00;;;;;;5108362;28;20644;-81
2023/12/29 08:48:18;;;;;;;0.43;0.43;;;11.00;1.00;;;;;;5119174;28;20172;-82
2023/12/29 08:50:43;;;;;;;0.60;0.60;;;11.20;1.00;;;;;;5113116;28;20212;-80
2023/12/29 08:53:09;;;;;;;0.40;0.40;;;11.50;1.00;;;;;;5106067;28;20259;-82
2023/12/29 08:55:36;;;;;;;0.43;0.43;;;11.70;1.00;;;;;;5097977;28;20189;-81
2023/12/29 08:58:02;;;;;;;0.50;0.50;;;11.60;1.00;;;;;;5101350;28;20188;-83
2023/12/29 09:00:30;;;;;;;0.60;0.60;;;11.60;1.00;;;;;;5116372;28;20181;-79
2023/12/29 09:02:56;;;;;;;0.60;0.60;;;11.50;1.00;;;;;;5119774;28;20166;-78
2023/12/29 09:05:21;;;;;;;0.50;0.50;;;11.80;1.00;;;;;;5118198;28;20184;-78
2023/12/29 09:07:47;;;;;;;0.60;0.60;;;11.20;1.00;;;;;;5118003;28;20236;-79
2023/12/29 09:10:13;;;;;;;0.50;0.50;;;10.70;1.00;;;;;;5119246;28;20217;-77
2023/12/29 09:12:39;;;;;;;0.50;0.50;;;10.40;1.00;;;;;;5119229;28;20233;-79
2023/12/29 09:15:05;;;;;;;0.60;0.60;;;10.30;1.00;;;;;;5118364;28;20200;-78
2023/12/29 09:17:31;;;;;;;0.60;0.60;;;10.20;1.00;;;;;;5119121;28;20268;-80
2023/12/29 09:19:57;;;;;;;0.70;0.70;;;10.20;1.00;;;;;;5117829;28;20177;-79
2023/12/29 09:22:22;;;;;;;0.60;0.60;;;10.10;1.00;;;;;;5121217;28;20162;-80
2023/12/29 09:24:48;;;;;;;0.60;0.60;;;10.20;1.00;;;;;;5117424;28;20184;-80
2023/12/29 09:27:13;;;;;;;0.60;0.60;;;10.30;1.00;;;;;;5114935;28;20197;-82
2023/12/29 09:29:40;;;;;;;0.60;0.60;;;10.30;1.00;;;;;;5105450;28;20256;-82
2023/12/29 09:32:06;;;;;;;0.70;0.70;;;10.40;1.00;;;;;;5107425;28;20656;-81
2023/12/29 09:34:31;;;;;;;0.50;0.50;;;10.40;1.00;;;;;;5105283;28;20230;-83
2023/12/29 09:36:57;;;;;;;0.70;0.70;;;10.30;1.00;;;;;;5106973;28;20272;-83
2023/12/29 09:39:23;;;;;;;0.67;0.67;;;10.30;1.00;;;;;;5104395;28;20227;-82
2023/12/29 09:41:52;;;;;;;0.60;0.60;;;10.30;1.00;;;;;;5107088;28;20184;-83
2023/12/29 09:44:20;;;;;;;0.60;0.60;;;10.30;1.00;;;;;;5101941;28;20227;-84
2023/12/29 09:46:50;;;;;;;0.63;0.63;;;10.30;1.00;;;;;;5099139;28;20246;-81
2023/12/29 09:49:18;;;;;;;0.60;0.60;;;10.40;1.00;;;;;;5106022;28;20201;-83
2023/12/29 09:51:44;;;;;;;0.60;0.60;;;10.60;1.00;;;;;;5094816;28;20228;-82
2023/12/29 09:54:10;;;;;;;0.50;0.50;;;10.50;1.00;;;;;;5096705;28;20182;-83
2023/12/29 09:56:37;;;;;;;0.50;0.50;;;10.40;1.00;;;;;;5096246;28;20615;-81
2023/12/29 09:59:03;;;;;;;0.50;0.50;;;10.30;1.00;;;;;;5098445;28;20274;-84
2023/12/29 10:01:30;;;;;;;0.50;0.50;;;10.40;1.00;;;;;;5098469;28;20174;-83
2023/12/29 10:03:56;;;;;;;0.60;0.60;;;10.20;1.00;;;;;;5099606;28;20673;-85
2023/12/29 10:06:26;;;;;;;0.70;0.70;;;10.20;1.00;;;;;;5107825;28;20197;-81
2023/12/29 10:08:52;;;;;;;0.60;0.60;;;10.10;1.00;;;;;;5114274;28;20279;-82
2023/12/29 10:11:20;;;;;;;0.60;0.60;;;10.10;1.00;;;;;;5108117;28;20208;-82
2023/12/29 10:13:49;;;;;;;0.60;0.60;;;10.20;1.00;;;;;;5107248;28;20170;-83
2023/12/29 10:16:20;;;;;;;0.60;0.60;;;10.20;1.00;;;;;;5107570;28;20235;-82
2023/12/29 10:19:11;;;;;;;0.60;0.60;;;10.30;1.00;;;;;;5106389;28;20634;-83
2023/12/29 10:22:05;;;;;;;0.60;0.60;;;10.40;1.00;;;;;;5102018;28;20182;-82
2023/12/29 10:24:32;;;;;;;0.60;0.60;;;10.50;1.00;;;;;;5097372;28;20641;-82
2023/12/29 10:26:57;;;;;;;0.60;0.60;;;10.60;1.00;;;;;;5105934;28;20185;-83
2023/12/29 10:29:23;;;;;;;0.60;0.60;;;10.90;1.00;;;;;;5122211;27;20605;-83
2023/12/29 10:31:49;;;;;;;0.53;0.53;;;12.30;99.90;;;;;;5103783;28;20206;-83
2023/12/29 10:34:29;;;;;;;0.40;0.40;;;14.40;99.90;;;;;;5106878;28;20173;-83
2023/12/29 10:36:59;;;;;;;0.60;0.60;;;15.10;1.00;;;;;;5104234;28;20264;-81
2023/12/29 10:39:25;;;;;;;0.50;0.50;;;15.70;99.90;;;;;;5105055;28;20355;-83
2023/12/29 10:42:06;;;;;;;0.40;0.40;;;14.80;99.90;;;;;;5102275;28;20169;-82
2023/12/29 10:44:33;;;;;;;0.60;0.60;;;14.30;99.90;;;;;;5120448;28;20166;-78
2023/12/29 10:47:06;;;;;;;0.60;0.60;;;13.10;99.90;;;;;;5117295;28;20440;-78
2023/12/29 10:49:32;;;;;;;0.40;0.40;;;13.10;1.00;;;;;;5132822;28;20181;-82
2023/12/29 10:51:58;;;;;;;0.43;0.43;;;13.60;1.00;;;;;;5106264;28;20551;-82
2023/12/29 10:54:23;;;;;;;0.50;0.50;;;13.80;1.00;;;;;;5110992;28;20646;-83
2023/12/29 10:57:10;;;;;;;0.50;0.50;;;14.10;1.00;;;;;;5106944;28;20190;-83
2023/12/29 10:59:35;;;;;;;0.40;0.40;;;14.00;1.00;;;;;;5112303;28;20173;-82
2023/12/29 11:02:03;;;;;;;0.50;0.50;;;14.00;1.00;;;;;;5111648;28;20173;-84
2023/12/29 11:04:29;;;;;;;0.40;0.40;;;14.10;1.00;;;;;;5116677;28;20211;-85
2023/12/29 11:06:55;;;;;;;0.40;0.40;;;14.40;1.00;;;;;;5105265;28;20214;-83
2023/12/29 11:09:36;;;;;;;0.40;0.40;;;14.70;99.90;;;;;;5115878;28;20165;-84
2023/12/29 11:12:03;;;;;;;0.50;0.50;;;15.50;99.90;;;;;;5104361;28;20188;-84
2023/12/29 11:14:30;;;;;;;0.40;0.40;;;15.30;99.90;;;;;;5102860;28;20166;-83
2023/12/29 11:16:57;;;;;;;0.50;0.50;;;16.00;99.90;;;;;;5104558;27;20212;-80
2023/12/29 11:19:23;;;;;;;0.40;0.40;;;17.00;1.00;;;;;;5105417;28;20177;-82
2023/12/29 11:21:57;;;;;;;0.40;0.40;;;16.90;1.00;;;;;;5104966;28;20181;-80
2023/12/29 11:24:25;;;;;;;0.50;0.50;;;16.10;1.00;;;;;;5105318;28;20172;-82
2023/12/29 11:26:52;;;;;;;0.40;0.40;;;15.80;1.00;;;;;;5102911;28;20273;-89
2023/12/29 11:29:18;;;;;;;0.40;0.40;;;15.50;1.00;;;;;;5096171;28;20169;-80
2023/12/29 11:31:46;;;;;;;0.43;0.43;;;14.90;1.00;;;;;;5113642;28;20265;-82
2023/12/29 11:34:22;;;;;;;0.50;0.50;;;14.70;15.30;;;;;;5134324;28;20170;-81
2023/12/29 11:36:50;;;;;;;0.50;0.50;;;14.30;25.50;;;;;;5104816;28;20198;-83
2023/12/29 11:39:27;;;;;;;0.40;0.40;;;13.90;99.90;;;;;;5106547;28;20174;-85
2023/12/29 11:42:14;;;;;;;0.60;0.60;;;13.80;99.90;;;;;;5095227;28;20181;-86
2023/12/29 11:44:39;;;;;;;0.60;0.60;;;13.60;99.90;;;;;;5097516;28;20174;-84
2023/12/29 11:47:06;;;;;;;0.60;0.60;;;13.90;99.90;;;;;;5093938;28;20204;-84
2023/12/29 11:50:00;;;;;;;0.50;0.50;;;13.80;99.90;;;;;;5105977;28;20184;-82
2023/12/29 11:52:38;;;;;;;0.50;0.50;;;13.80;99.90;;;;;;5112081;28;20666;-82
2023/12/29 11:55:12;;;;;;;0.57;0.57;;;14.40;99.90;;;;;;5109575;28;20169;-82
2023/12/29 11:57:39;;;;;;;0.40;0.40;;;14.30;99.90;;;;;;5114158;28;20197;-83
2023/12/29 12:00:07;;;;;;;0.60;0.60;;;14.20;99.90;;;;;;5106839;28;20177;-83
2023/12/29 12:02:33;;;;;;;0.40;0.40;;;14.30;99.90;;;;;;5107895;28;20174;-83
2023/12/29 12:04:58;;;;;;;0.50;0.50;;;13.80;49.80;;;;;;5106913;28;20184;-84
2023/12/29 12:07:33;;;;;;;0.40;0.40;;;13.80;99.90;;;;;;5106900;28;20216;-82
2023/12/29 12:10:33;;;;;;;0.50;0.50;;;14.10;80.60;;;;;;5104020;28;20201;-84
2023/12/29 12:12:59;;;;;;;0.50;0.50;;;13.30;99.90;;;;;;5095990;28;20208;-80
2023/12/29 12:15:30;;;;;;;0.60;0.60;;;13.10;99.90;;;;;;5111669;28;20178;-81
2023/12/29 12:17:57;;;;;;;0.50;0.50;;;13.40;99.90;;;;;;5103387;28;20169;-84
2023/12/29 12:20:23;;;;;;;0.47;0.47;;;13.80;99.90;;;;;;5109952;28;20172;-83
2023/12/29 12:23:17;;;;;;;0.50;0.50;;;13.70;99.90;;;;;;5108622;28;20185;-81
2023/12/29 12:25:45;;;;;;;0.60;0.60;;;13.30;99.90;;;;;;5113805;28;20194;-82
2023/12/29 12:28:14;;;;;;;0.50;0.50;;;13.30;99.90;;;;;;5107174;28;20187;-82
2023/12/29 12:30:39;;;;;;;0.60;0.60;;;13.30;99.90;;;;;;5109221;28;20199;-83
2023/12/29 12:33:05;;;;;;;0.40;0.40;;;13.50;99.90;;;;;;5096000;28;20708;-82
2023/12/29 12:35:31;;;;;;;0.53;0.53;;;13.40;99.90;;;;;;5099520;28;20177;-82
2023/12/29 12:38:10;;;;;;;0.57;0.57;;;13.40;99.90;;;;;;5108006;28;20305;-83
2023/12/29 12:40:35;;;;;;;0.50;0.50;;;13.70;92.30;;;;;;5104353;28;20182;-81
2023/12/29 12:43:03;;;;;;;0.50;0.50;;;14.50;11.20;;;;;;5113746;28;20188;-80
2023/12/29 12:45:33;;;;;;;0.40;0.40;;;14.80;1.00;;;;;;5123167;28;20215;-79
2023/12/29 12:48:14;;;;;;;0.40;0.40;;;14.30;1.00;;;;;;5131100;28;20257;-80
2023/12/29 12:50:47;;;;;;;0.50;0.50;;;14.60;1.00;;;;;;5133972;28;20223;-79
2023/12/29 12:53:20;;;;;;;0.50;0.50;;;15.10;1.00;;;;;;5116851;28;20182;-80
2023/12/29 12:55:50;;;;;;;0.40;0.40;;;15.40;1.00;;;;;;5102075;28;20208;-82
2023/12/29 12:58:18;;;;;;;0.50;0.50;;;15.50;1.00;;;;;;5102560;28;20196;-83